NFC9312 EGAA-EGPD
Flight info
| Callsign | NFC9312 |
|---|---|
| Flight time | 0h 46m |
| Altitude | 25000 |
| Route | DCT BLACA P600 TRN DCT GRICE DCT FINDO P600 NAXIL DCT |
| Aircraft | B738/M-SDE2E3FGHIRWXY/LB1 |
Departure
| Time | 2026-04-28 02:33 |
|---|---|
| Airport | Belfast International Airport (EGAA) |
Arrival
| Time | 2026-04-28 03:19 |
|---|---|
| Airport | Aberdeen International Airport (EGPD) |
| Time | Latitude | Longitude | Altitude | Speed | Heading |
|---|---|---|---|---|---|
| 2026-04-28 02:18 | 54.65990 | -6.22276 | 273 ft | 0 kts | 335° |
| 2026-04-28 02:24 | 54.65989 | -6.22276 | 271 ft | 2 kts | 335° |
| 2026-04-28 02:24 | 54.65968 | -6.22259 | 271 ft | 2 kts | 335° |
| 2026-04-28 02:24 | 54.65949 | -6.22239 | 271 ft | 4 kts | 301° |
| 2026-04-28 02:24 | 54.65943 | -6.22198 | 271 ft | 4 kts | 260° |
| 2026-04-28 02:25 | 54.65949 | -6.22163 | 271 ft | 3 kts | 245° |
| 2026-04-28 02:25 | 54.65957 | -6.22121 | 271 ft | 4 kts | 273° |
| 2026-04-28 02:25 | 54.65949 | -6.22085 | 271 ft | 4 kts | 330° |
| 2026-04-28 02:25 | 54.65926 | -6.22065 | 271 ft | 4 kts | 335° |
| 2026-04-28 02:26 | 54.65901 | -6.22046 | 271 ft | 4 kts | 335° |
| 2026-04-28 02:26 | 54.65877 | -6.22026 | 271 ft | 4 kts | 335° |
| 2026-04-28 02:26 | 54.65854 | -6.22010 | 271 ft | 4 kts | 354° |
| 2026-04-28 02:26 | 54.65829 | -6.22016 | 271 ft | 4 kts | 31° |
| 2026-04-28 02:27 | 54.65809 | -6.22045 | 271 ft | 4 kts | 55° |
| 2026-04-28 02:27 | 54.65800 | -6.22072 | 271 ft | 0 kts | 65° |
| 2026-04-28 02:28 | 54.65800 | -6.22071 | 271 ft | 1 kts | 65° |
| 2026-04-28 02:29 | 54.65809 | -6.22038 | 271 ft | 7 kts | 65° |
| 2026-04-28 02:29 | 54.65842 | -6.21914 | 274 ft | 15 kts | 65° |
| 2026-04-28 02:29 | 54.65893 | -6.21724 | 271 ft | 19 kts | 65° |
| 2026-04-28 02:29 | 54.65954 | -6.21498 | 271 ft | 22 kts | 65° |
| 2026-04-28 02:30 | 54.66021 | -6.21252 | 271 ft | 23 kts | 65° |
| 2026-04-28 02:30 | 54.66091 | -6.20993 | 271 ft | 24 kts | 65° |
| 2026-04-28 02:30 | 54.66162 | -6.20732 | 272 ft | 24 kts | 65° |
| 2026-04-28 02:30 | 54.66229 | -6.20481 | 274 ft | 23 kts | 65° |
| 2026-04-28 02:31 | 54.66294 | -6.20238 | 271 ft | 22 kts | 65° |
| 2026-04-28 02:31 | 54.66357 | -6.20003 | 274 ft | 21 kts | 65° |
| 2026-04-28 02:31 | 54.66397 | -6.19846 | 271 ft | 12 kts | 76° |
| 2026-04-28 02:31 | 54.66371 | -6.19724 | 271 ft | 10 kts | 135° |
| 2026-04-28 02:32 | 54.66310 | -6.19665 | 271 ft | 10 kts | 155° |
| 2026-04-28 02:32 | 54.66266 | -6.19664 | 271 ft | 6 kts | 224° |
| 2026-04-28 02:32 | 54.66231 | -6.19792 | 272 ft | 33 kts | 245° |
| 2026-04-28 02:32 | 54.66020 | -6.20572 | 273 ft | 108 kts | 245° |
| 2026-04-28 02:33 | 54.65618 | -6.22074 | 318 ft | 161 kts | 246° |
| 2026-04-28 02:33 | 54.65132 | -6.23830 | 959 ft | 165 kts | 245° |
| 2026-04-28 02:33 | 54.64623 | -6.25664 | 1660 ft | 175 kts | 245° |
| 2026-04-28 02:33 | 54.64097 | -6.27622 | 2276 ft | 191 kts | 245° |
| 2026-04-28 02:34 | 54.63329 | -6.29695 | 2553 ft | 220 kts | 218° |
| 2026-04-28 02:34 | 54.61861 | -6.30569 | 2865 ft | 234 kts | 175° |
| 2026-04-28 02:34 | 54.60298 | -6.29562 | 3166 ft | 251 kts | 136° |
| 2026-04-28 02:34 | 54.59395 | -6.27002 | 3910 ft | 255 kts | 103° |
| 2026-04-28 02:35 | 54.59356 | -6.23991 | 4860 ft | 254 kts | 75° |
| 2026-04-28 02:35 | 54.60005 | -6.21149 | 5784 ft | 256 kts | 64° |
| 2026-04-28 02:35 | 54.60798 | -6.18363 | 6631 ft | 261 kts | 63° |
| 2026-04-28 02:35 | 54.61617 | -6.15550 | 7494 ft | 264 kts | 62° |
| 2026-04-28 02:36 | 54.62434 | -6.12713 | 8390 ft | 265 kts | 62° |
| 2026-04-28 02:36 | 54.63248 | -6.09843 | 9267 ft | 267 kts | 62° |
| 2026-04-28 02:36 | 54.64061 | -6.06939 | 10147 ft | 270 kts | 62° |
| 2026-04-28 02:36 | 54.64896 | -6.03930 | 10561 ft | 290 kts | 62° |
| 2026-04-28 02:37 | 54.65800 | -6.00651 | 10752 ft | 315 kts | 62° |
| 2026-04-28 02:37 | 54.66749 | -5.97174 | 11085 ft | 332 kts | 63° |
| 2026-04-28 02:37 | 54.67738 | -5.93527 | 11727 ft | 337 kts | 63° |
| 2026-04-28 02:37 | 54.68728 | -5.89849 | 12574 ft | 338 kts | 63° |
| 2026-04-28 02:38 | 54.69722 | -5.86151 | 13419 ft | 340 kts | 62° |
| 2026-04-28 02:38 | 54.70720 | -5.82429 | 14235 ft | 343 kts | 62° |
| 2026-04-28 02:38 | 54.71728 | -5.78665 | 14967 ft | 346 kts | 62° |
| 2026-04-28 02:38 | 54.72742 | -5.74872 | 15749 ft | 349 kts | 62° |
| 2026-04-28 02:39 | 54.73762 | -5.71049 | 16535 ft | 351 kts | 62° |
| 2026-04-28 02:39 | 54.74789 | -5.67194 | 17296 ft | 354 kts | 62° |
| 2026-04-28 02:39 | 54.75824 | -5.63304 | 18044 ft | 357 kts | 62° |
| 2026-04-28 02:39 | 54.76868 | -5.59374 | 18781 ft | 361 kts | 62° |
| 2026-04-28 02:40 | 54.77920 | -5.55406 | 19397 ft | 364 kts | 62° |
| 2026-04-28 02:40 | 54.78982 | -5.51395 | 20004 ft | 368 kts | 62° |
| 2026-04-28 02:40 | 54.80052 | -5.47347 | 20613 ft | 371 kts | 62° |
| 2026-04-28 02:40 | 54.81130 | -5.43259 | 21231 ft | 375 kts | 62° |
| 2026-04-28 02:41 | 54.82265 | -5.39214 | 21937 ft | 374 kts | 59° |
| 2026-04-28 02:41 | 54.83426 | -5.35160 | 22532 ft | 377 kts | 60° |
| 2026-04-28 02:41 | 54.84542 | -5.31008 | 23120 ft | 381 kts | 62° |
| 2026-04-28 02:41 | 54.85606 | -5.26807 | 23867 ft | 380 kts | 62° |
| 2026-04-28 02:42 | 54.86645 | -5.22613 | 24589 ft | 376 kts | 62° |
| 2026-04-28 02:42 | 54.87924 | -5.18725 | 25154 ft | 370 kts | 49° |
| 2026-04-28 02:42 | 54.89665 | -5.15470 | 25415 ft | 367 kts | 40° |
| 2026-04-28 02:42 | 54.91695 | -5.12847 | 25426 ft | 363 kts | 28° |
| 2026-04-28 02:43 | 54.93956 | -5.10848 | 25439 ft | 366 kts | 26° |
| 2026-04-28 02:43 | 54.96248 | -5.08908 | 25445 ft | 366 kts | 26° |
| 2026-04-28 02:43 | 54.98542 | -5.06966 | 25442 ft | 367 kts | 26° |
| 2026-04-28 02:43 | 55.00832 | -5.05011 | 25442 ft | 367 kts | 26° |
| 2026-04-28 02:44 | 55.03121 | -5.03039 | 25439 ft | 367 kts | 26° |
| 2026-04-28 02:44 | 55.05405 | -5.01059 | 25440 ft | 366 kts | 26° |
| 2026-04-28 02:44 | 55.07656 | -4.99100 | 25435 ft | 366 kts | 26° |
| 2026-04-28 02:44 | 55.09934 | -4.97112 | 25439 ft | 366 kts | 26° |
| 2026-04-28 02:45 | 55.12241 | -4.95101 | 25427 ft | 366 kts | 26° |
| 2026-04-28 02:45 | 55.14517 | -4.93131 | 25464 ft | 365 kts | 26° |
| 2026-04-28 02:45 | 55.16787 | -4.91165 | 25435 ft | 363 kts | 26° |
| 2026-04-28 02:45 | 55.19053 | -4.89198 | 25434 ft | 363 kts | 26° |
| 2026-04-28 02:46 | 55.21279 | -4.87246 | 25451 ft | 363 kts | 26° |
| 2026-04-28 02:46 | 55.23532 | -4.85258 | 25435 ft | 363 kts | 26° |
| 2026-04-28 02:46 | 55.25790 | -4.83264 | 25438 ft | 363 kts | 26° |
| 2026-04-28 02:46 | 55.28047 | -4.81270 | 25451 ft | 364 kts | 26° |
| 2026-04-28 02:47 | 55.30309 | -4.79268 | 25442 ft | 364 kts | 26° |
| 2026-04-28 02:47 | 55.32512 | -4.77083 | 25447 ft | 365 kts | 32° |
| 2026-04-28 02:47 | 55.34620 | -4.74590 | 25445 ft | 366 kts | 33° |
| 2026-04-28 02:47 | 55.36705 | -4.72024 | 25443 ft | 366 kts | 34° |
| 2026-04-28 02:48 | 55.38790 | -4.69435 | 25454 ft | 366 kts | 34° |
| 2026-04-28 02:48 | 55.40872 | -4.66855 | 25449 ft | 367 kts | 34° |
| 2026-04-28 02:48 | 55.42960 | -4.64278 | 25463 ft | 366 kts | 34° |
| 2026-04-28 02:48 | 55.45050 | -4.61709 | 25441 ft | 367 kts | 34° |
| 2026-04-28 02:49 | 55.47146 | -4.59139 | 25455 ft | 367 kts | 33° |
| 2026-04-28 02:49 | 55.49247 | -4.56566 | 25461 ft | 367 kts | 33° |
| 2026-04-28 02:49 | 55.51348 | -4.53994 | 25463 ft | 368 kts | 33° |
| 2026-04-28 02:49 | 55.53447 | -4.51421 | 25464 ft | 368 kts | 33° |
| 2026-04-28 02:50 | 55.55553 | -4.48838 | 25459 ft | 368 kts | 33° |
| 2026-04-28 02:50 | 55.57659 | -4.46251 | 25485 ft | 369 kts | 34° |
| 2026-04-28 02:50 | 55.59755 | -4.43674 | 25459 ft | 364 kts | 34° |
| 2026-04-28 02:50 | 55.61826 | -4.41124 | 25467 ft | 363 kts | 34° |
| 2026-04-28 02:51 | 55.63904 | -4.38562 | 25472 ft | 365 kts | 34° |
| 2026-04-28 02:51 | 55.65990 | -4.35987 | 25475 ft | 366 kts | 34° |
| 2026-04-28 02:51 | 55.68078 | -4.33406 | 25470 ft | 366 kts | 34° |
| 2026-04-28 02:51 | 55.70168 | -4.30819 | 25474 ft | 367 kts | 34° |
| 2026-04-28 02:52 | 55.72259 | -4.28227 | 25467 ft | 367 kts | 34° |
| 2026-04-28 02:52 | 55.74325 | -4.25663 | 25470 ft | 368 kts | 34° |
| 2026-04-28 02:52 | 55.76448 | -4.23025 | 25475 ft | 368 kts | 34° |
| 2026-04-28 02:52 | 55.78518 | -4.20449 | 25475 ft | 368 kts | 34° |
| 2026-04-28 02:53 | 55.80612 | -4.17840 | 25478 ft | 368 kts | 34° |
| 2026-04-28 02:53 | 55.82707 | -4.15225 | 25476 ft | 368 kts | 34° |
| 2026-04-28 02:53 | 55.84803 | -4.12607 | 25471 ft | 368 kts | 34° |
| 2026-04-28 02:53 | 55.86900 | -4.09984 | 25473 ft | 368 kts | 34° |
| 2026-04-28 02:54 | 55.88992 | -4.07362 | 25474 ft | 367 kts | 34° |
| 2026-04-28 02:54 | 55.91081 | -4.04743 | 25469 ft | 367 kts | 34° |
| 2026-04-28 02:54 | 55.93168 | -4.02121 | 25468 ft | 367 kts | 34° |
| 2026-04-28 02:54 | 55.95254 | -3.99497 | 25465 ft | 367 kts | 34° |
| 2026-04-28 02:55 | 55.97338 | -3.96874 | 25461 ft | 367 kts | 34° |
| 2026-04-28 02:55 | 55.99421 | -3.94246 | 25475 ft | 366 kts | 34° |
| 2026-04-28 02:55 | 56.01496 | -3.91626 | 25470 ft | 365 kts | 34° |
| 2026-04-28 02:55 | 56.03571 | -3.89002 | 25456 ft | 365 kts | 34° |
| 2026-04-28 02:56 | 56.05638 | -3.86386 | 25463 ft | 364 kts | 34° |
| 2026-04-28 02:56 | 56.07701 | -3.83771 | 25453 ft | 363 kts | 34° |
| 2026-04-28 02:56 | 56.09760 | -3.81157 | 25453 ft | 363 kts | 34° |
| 2026-04-28 02:56 | 56.11817 | -3.78543 | 25452 ft | 363 kts | 34° |
| 2026-04-28 02:57 | 56.13873 | -3.75928 | 25454 ft | 362 kts | 34° |
| 2026-04-28 02:57 | 56.15928 | -3.73312 | 25465 ft | 363 kts | 34° |
| 2026-04-28 02:57 | 56.17986 | -3.70683 | 25465 ft | 363 kts | 34° |
| 2026-04-28 02:57 | 56.20019 | -3.68085 | 25460 ft | 361 kts | 34° |
| 2026-04-28 02:58 | 56.22032 | -3.65507 | 25341 ft | 351 kts | 34° |
| 2026-04-28 02:58 | 56.24003 | -3.62982 | 25037 ft | 345 kts | 34° |
| 2026-04-28 02:58 | 56.25950 | -3.60484 | 24604 ft | 342 kts | 34° |
| 2026-04-28 02:58 | 56.27880 | -3.58007 | 24187 ft | 339 kts | 34° |
| 2026-04-28 02:59 | 56.29796 | -3.55547 | 23714 ft | 337 kts | 34° |
| 2026-04-28 02:59 | 56.31698 | -3.53102 | 23233 ft | 335 kts | 34° |
| 2026-04-28 02:59 | 56.33584 | -3.50675 | 22778 ft | 332 kts | 34° |
| 2026-04-28 02:59 | 56.35457 | -3.48257 | 22344 ft | 329 kts | 35° |
| 2026-04-28 03:00 | 56.37311 | -3.45861 | 21873 ft | 327 kts | 35° |
| 2026-04-28 03:00 | 56.39171 | -3.43448 | 21301 ft | 330 kts | 35° |
| 2026-04-28 03:00 | 56.41029 | -3.41028 | 20826 ft | 328 kts | 35° |
| 2026-04-28 03:00 | 56.42872 | -3.38625 | 20392 ft | 326 kts | 36° |
| 2026-04-28 03:01 | 56.44706 | -3.36243 | 19960 ft | 324 kts | 35° |
| 2026-04-28 03:01 | 56.46566 | -3.33916 | 19486 ft | 324 kts | 34° |
| 2026-04-28 03:01 | 56.48422 | -3.31633 | 19072 ft | 322 kts | 34° |
| 2026-04-28 03:01 | 56.50270 | -3.29363 | 18646 ft | 320 kts | 34° |
| 2026-04-28 03:02 | 56.52108 | -3.27102 | 18189 ft | 319 kts | 34° |
| 2026-04-28 03:02 | 56.53934 | -3.24847 | 17750 ft | 316 kts | 34° |
| 2026-04-28 03:02 | 56.55739 | -3.22613 | 17340 ft | 313 kts | 34° |
| 2026-04-28 03:02 | 56.57535 | -3.20385 | 16936 ft | 311 kts | 34° |
| 2026-04-28 03:03 | 56.59311 | -3.18179 | 16548 ft | 309 kts | 34° |
| 2026-04-28 03:03 | 56.61081 | -3.15978 | 16152 ft | 307 kts | 34° |
| 2026-04-28 03:03 | 56.62835 | -3.13794 | 15766 ft | 305 kts | 34° |
| 2026-04-28 03:03 | 56.64580 | -3.11620 | 15379 ft | 303 kts | 34° |
| 2026-04-28 03:04 | 56.66291 | -3.09484 | 15002 ft | 302 kts | 34° |
| 2026-04-28 03:04 | 56.68018 | -3.07323 | 14625 ft | 301 kts | 34° |
| 2026-04-28 03:04 | 56.69739 | -3.05168 | 14203 ft | 300 kts | 34° |
| 2026-04-28 03:04 | 56.71478 | -3.02981 | 13599 ft | 305 kts | 34° |
| 2026-04-28 03:05 | 56.73220 | -3.00785 | 13181 ft | 304 kts | 34° |
| 2026-04-28 03:05 | 56.74952 | -2.98597 | 12771 ft | 302 kts | 34° |
| 2026-04-28 03:05 | 56.76673 | -2.96422 | 12387 ft | 300 kts | 34° |
| 2026-04-28 03:05 | 56.78388 | -2.94260 | 11963 ft | 299 kts | 34° |
| 2026-04-28 03:06 | 56.80098 | -2.92107 | 11585 ft | 298 kts | 34° |
| 2026-04-28 03:06 | 56.81801 | -2.89961 | 11201 ft | 297 kts | 34° |
| 2026-04-28 03:06 | 56.83489 | -2.87833 | 10932 ft | 292 kts | 34° |
| 2026-04-28 03:06 | 56.85136 | -2.85754 | 10802 ft | 283 kts | 34° |
| 2026-04-28 03:07 | 56.86729 | -2.83739 | 10669 ft | 274 kts | 34° |
| 2026-04-28 03:07 | 56.87777 | -2.82411 | 10582 ft | 269 kts | 34° |
| 2026-04-28 03:07 | 56.89288 | -2.80496 | 10468 ft | 261 kts | 34° |
| 2026-04-28 03:07 | 56.90777 | -2.78612 | 10155 ft | 260 kts | 34° |
| 2026-04-28 03:08 | 56.92245 | -2.76761 | 9861 ft | 259 kts | 34° |
| 2026-04-28 03:08 | 56.93724 | -2.74892 | 9567 ft | 258 kts | 34° |
| 2026-04-28 03:08 | 56.95196 | -2.73029 | 9181 ft | 258 kts | 34° |
| 2026-04-28 03:08 | 56.96746 | -2.71185 | 8624 ft | 268 kts | 31° |
| 2026-04-28 03:09 | 56.98357 | -2.69435 | 8248 ft | 269 kts | 30° |
| 2026-04-28 03:09 | 56.99969 | -2.67712 | 7954 ft | 268 kts | 30° |
| 2026-04-28 03:09 | 57.01575 | -2.65996 | 7646 ft | 267 kts | 30° |
| 2026-04-28 03:09 | 57.03171 | -2.64285 | 7353 ft | 265 kts | 30° |
| 2026-04-28 03:10 | 57.04752 | -2.62583 | 7084 ft | 263 kts | 30° |
| 2026-04-28 03:10 | 57.06323 | -2.60887 | 6786 ft | 261 kts | 30° |
| 2026-04-28 03:10 | 57.07887 | -2.59196 | 6485 ft | 260 kts | 30° |
| 2026-04-28 03:10 | 57.09437 | -2.57515 | 6190 ft | 258 kts | 30° |
| 2026-04-28 03:11 | 57.10975 | -2.55846 | 5912 ft | 256 kts | 30° |
| 2026-04-28 03:11 | 57.12501 | -2.54187 | 5642 ft | 254 kts | 30° |
| 2026-04-28 03:11 | 57.14017 | -2.52536 | 5363 ft | 252 kts | 30° |
| 2026-04-28 03:11 | 57.15523 | -2.50895 | 5077 ft | 251 kts | 30° |
| 2026-04-28 03:12 | 57.17013 | -2.49270 | 4932 ft | 244 kts | 30° |
| 2026-04-28 03:12 | 57.18453 | -2.47697 | 4802 ft | 237 kts | 30° |
| 2026-04-28 03:12 | 57.19849 | -2.46173 | 4700 ft | 229 kts | 30° |
| 2026-04-28 03:12 | 57.21199 | -2.44696 | 4603 ft | 222 kts | 30° |
| 2026-04-28 03:13 | 57.22502 | -2.43270 | 4510 ft | 213 kts | 30° |
| 2026-04-28 03:13 | 57.23739 | -2.41915 | 4428 ft | 201 kts | 30° |
| 2026-04-28 03:13 | 57.24918 | -2.40622 | 4226 ft | 193 kts | 30° |
| 2026-04-28 03:13 | 57.26049 | -2.39382 | 4024 ft | 186 kts | 31° |
| 2026-04-28 03:14 | 57.27142 | -2.38184 | 3816 ft | 180 kts | 31° |
| 2026-04-28 03:14 | 57.28198 | -2.37022 | 3624 ft | 174 kts | 30° |
| 2026-04-28 03:14 | 57.29216 | -2.35902 | 3426 ft | 167 kts | 30° |
| 2026-04-28 03:14 | 57.30199 | -2.34819 | 3251 ft | 163 kts | 30° |
| 2026-04-28 03:15 | 57.31168 | -2.33751 | 3078 ft | 162 kts | 30° |
| 2026-04-28 03:15 | 57.32133 | -2.32662 | 2913 ft | 162 kts | 36° |
| 2026-04-28 03:15 | 57.32719 | -2.30957 | 2710 ft | 162 kts | 87° |
| 2026-04-28 03:15 | 57.32272 | -2.29123 | 2660 ft | 166 kts | 142° |
| 2026-04-28 03:16 | 57.31224 | -2.28094 | 2468 ft | 176 kts | 152° |
| 2026-04-28 03:16 | 57.30115 | -2.27130 | 2223 ft | 175 kts | 156° |
| 2026-04-28 03:16 | 57.29003 | -2.26288 | 1980 ft | 168 kts | 158° |
| 2026-04-28 03:16 | 57.27972 | -2.25529 | 1778 ft | 150 kts | 157° |
| 2026-04-28 03:17 | 57.27046 | -2.24844 | 1555 ft | 140 kts | 157° |
| 2026-04-28 03:17 | 57.25248 | -2.23519 | 1180 ft | 138 kts | 157° |
| 2026-04-28 03:17 | 57.24362 | -2.22860 | 967 ft | 136 kts | 158° |
| 2026-04-28 03:18 | 57.23497 | -2.22224 | 784 ft | 132 kts | 158° |
| 2026-04-28 03:18 | 57.22658 | -2.21599 | 596 ft | 128 kts | 158° |
| 2026-04-28 03:18 | 57.21839 | -2.20995 | 424 ft | 126 kts | 158° |
| 2026-04-28 03:18 | 57.21033 | -2.20396 | 273 ft | 124 kts | 158° |
| 2026-04-28 03:19 | 57.20312 | -2.19863 | 247 ft | 94 kts | 158° |
| 2026-04-28 03:19 | 57.19841 | -2.19517 | 250 ft | 51 kts | 158° |
| 2026-04-28 03:19 | 57.19619 | -2.19352 | 248 ft | 29 kts | 158° |
| 2026-04-28 03:19 | 57.19487 | -2.19256 | 246 ft | 10 kts | 158° |
| 2026-04-28 03:20 | 57.19429 | -2.19277 | 245 ft | 9 kts | 233° |
| 2026-04-28 03:20 | 57.19439 | -2.19382 | 246 ft | 9 kts | 316° |
| 2026-04-28 03:20 | 57.19486 | -2.19457 | 246 ft | 9 kts | 320° |
| 2026-04-28 03:20 | 57.19532 | -2.19530 | 246 ft | 9 kts | 319° |
| 2026-04-28 03:21 | 57.19576 | -2.19602 | 246 ft | 8 kts | 318° |
| 2026-04-28 03:21 | 57.19619 | -2.19671 | 246 ft | 8 kts | 322° |
| 2026-04-28 03:21 | 57.19669 | -2.19715 | 246 ft | 8 kts | 339° |
| 2026-04-28 03:21 | 57.19720 | -2.19752 | 246 ft | 8 kts | 339° |
| 2026-04-28 03:22 | 57.19768 | -2.19786 | 246 ft | 7 kts | 339° |
| 2026-04-28 03:22 | 57.19822 | -2.19826 | 246 ft | 9 kts | 337° |
| 2026-04-28 03:22 | 57.19886 | -2.19895 | 246 ft | 12 kts | 317° |
| 2026-04-28 03:22 | 57.19944 | -2.19999 | 246 ft | 11 kts | 315° |
| 2026-04-28 03:23 | 57.20008 | -2.20082 | 246 ft | 12 kts | 335° |
| 2026-04-28 03:23 | 57.20097 | -2.20145 | 246 ft | 16 kts | 338° |
| 2026-04-28 03:23 | 57.20199 | -2.20224 | 246 ft | 16 kts | 337° |
| 2026-04-28 03:23 | 57.20281 | -2.20287 | 246 ft | 9 kts | 340° |
| 2026-04-28 03:24 | 57.20321 | -2.20325 | 246 ft | 5 kts | 310° |
| 2026-04-28 03:24 | 57.20314 | -2.20388 | 246 ft | 5 kts | 234° |
| 2026-04-28 03:24 | 57.20294 | -2.20435 | 246 ft | 3 kts | 229° |
| 2026-04-28 03:24 | 57.20277 | -2.20438 | 246 ft | 2 kts | 146° |
| 2026-04-28 03:25 | 57.20264 | -2.20410 | 246 ft | 3 kts | 136° |
| 2026-04-28 03:25 | 57.20253 | -2.20392 | 246 ft | 0 kts | 136° |
| 2026-04-28 03:25 | 57.20250 | -2.20387 | 246 ft | 1 kts | 136° |
| 2026-04-28 03:25 | 57.20249 | -2.20386 | 246 ft | 0 kts | 136° |